Ostria — V7JH4 — position and weather

sailwx.info

Track history (hours):
 
Tides and Currents Weather Stations Pressure Air Temp Water Temp Dewpoint Dewpoint Depression Visibility Wind Speed Wind Dir Waves Ship Positions

Ostria

Last reported at 2018-Jun-23 02:40 UTC. Time now 2018-Jun-24 01:06 UTC.
Position N 36°16' E 014°17'.

Length 100 m.

Type: Cargo ship. MMSI: 538002518.

Date/timePositionNaut miles runAvg speedWind from/ knotsBaromVisibWave heightAir tempDewpointWater temp
2018-Jun-23 02:40N 36°16' E 014°17'212.1
2018-Jun-23 02:30N 36°17' E 014°15'612.1
2018-Jun-23 01:59N 36°19' E 014°08'611.9
2018-Jun-23 01:30N 36°21' E 014°01'611.9
2018-Jun-23 01:00N 36°23' E 013°54'612.1
2018-Jun-23 00:30N 36°25' E 013°47'612.3
2018-Jun-23 00:00N 36°26' E 013°40'612.2
2018-Jun-22 23:30N 36°28' E 013°32'611.8
2018-Jun-22 22:59N 36°30' E 013°25'611.9
2018-Jun-22 22:30N 36°32' E 013°18'612.0
2018-Jun-22 22:00N 36°34' E 013°11'612.0
2018-Jun-22 21:30N 36°36' E 013°04'612.1
2018-Jun-22 21:00N 36°38' E 012°57'611.8
2018-Jun-22 20:29N 36°40' E 012°50'611.8
2018-Jun-22 20:00N 36°43' E 012°44'1412.1
2018-Jun-22 18:52N 36°49' E 012°28'411.9
2018-Jun-22 18:30N 36°51' E 012°24'612.1
2018-Jun-22 18:01N 36°54' E 012°17'612.0
2018-Jun-22 17:31N 36°56' E 012°10'711.9
2018-Jun-22 16:54N 36°59' E 012°02'712.1
2018-Jun-22 16:21N 37°02' E 011°54'29611.2
2018-Jun-21 13:59N 37°15' E 005°44'5511.3
2018-Jun-21 09:07N 37°07' E 004°35'6811.4
2018-Jun-21 03:07N 36°58' E 003°10'111.1
2018-Jun-21 03:00N 36°58' E 003°09'611.1
2018-Jun-21 02:30N 36°57' E 003°02'611.3
2018-Jun-21 02:00N 36°56' E 002°55'611.3
2018-Jun-21 01:30N 36°55' E 002°48'611.2
2018-Jun-21 01:00N 36°54' E 002°41'511.1
2018-Jun-21 00:30N 36°54' E 002°34'510.6
2018-Jun-21 00:00N 36°53' E 002°27'1010.5
2018-Jun-20 23:05N 36°52' E 002°15'110.5
2018-Jun-20 23:00N 36°51' E 002°14'610.5
2018-Jun-20 22:25N 36°51' E 002°07'410.8
2018-Jun-20 22:00N 36°50' E 002°01'510.9
2018-Jun-20 21:30N 36°49' E 001°54'611.0
2018-Jun-20 21:00N 36°48' E 001°48'611.2
2018-Jun-20 20:28N 36°48' E 001°40'511.8
2018-Jun-20 20:00N 36°47' E 001°34'611.8
2018-Jun-20 19:30N 36°46' E 001°26'611.7
2018-Jun-20 19:00N 36°45' E 001°19'611.6
2018-Jun-20 18:30N 36°44' E 001°12'611.6
2018-Jun-20 18:00N 36°43' E 001°05'611.6
2018-Jun-20 17:30N 36°43' E 000°58'1111.5
2018-Jun-20 16:32N 36°41' E 000°44'011.7
2018-Jun-20 16:29N 36°41' E 000°43'711.5
2018-Jun-20 15:52N 36°40' E 000°34'411.4
2018-Jun-20 15:30N 36°40' E 000°29'611.7
2018-Jun-20 15:00N 36°39' E 000°22'511.2
2018-Jun-20 14:30N 36°38' E 000°15'610.8
2018-Jun-20 13:57N 36°37' E 000°08'  
2018-Jun-16 01:28N 37°05' W 006°53'0 0.0
2018-Jun-16 00:28N 37°05' W 006°53'33 0.8
2018-Jun-14 06:08N 36°33' W 007°05'210.7
2018-Jun-14 05:56N 36°31' W 007°06'4811.0
2018-Jun-14 01:31N 35°44' W 007°19'5 9.4
2018-Jun-14 01:01N 35°40' W 007°19'1 0.8
2018-Jun-14 00:21N 35°40' W 007°19'0 0.8
2018-Jun-14 00:00N 35°40' W 007°19'77 4.1
2018-Jun-13 05:16N 35°57' W 005°47'4 7.4
2018-Jun-13 04:44N 35°57' W 005°42'3 7.0
2018-Jun-13 04:14N 35°58' W 005°37'2 7.5
2018-Jun-13 04:00N 35°58' W 005°35'4 7.4
2018-Jun-13 03:30N 35°59' W 005°31'4 7.9
2018-Jun-13 03:01N 36°00' W 005°26'  
Track history (hours):
 
Tides and Currents Weather Stations Pressure Air Temp Water Temp Dewpoint Dewpoint Depression Visibility Wind Speed Wind Dir Waves Ship Positions

Ostria

Last reported at 2018-Jun-23 02:40 UTC. Time now 2018-Jun-24 01:06 UTC.
Position N 36°16' E 014°17'.

Length 100 m.

Type: Cargo ship. MMSI: 538002518.

Date/timePositionNaut miles runAvg speedWind from/ knotsBaromVisibWave heightAir tempDewpointWater temp
2018-Jun-23 02:40N 36°16' E 014°17'212.1
2018-Jun-23 02:30N 36°17' E 014°15'612.1
2018-Jun-23 01:59N 36°19' E 014°08'611.9
2018-Jun-23 01:30N 36°21' E 014°01'611.9
2018-Jun-23 01:00N 36°23' E 013°54'612.1
2018-Jun-23 00:30N 36°25' E 013°47'612.3
2018-Jun-23 00:00N 36°26' E 013°40'612.2
2018-Jun-22 23:30N 36°28' E 013°32'611.8
2018-Jun-22 22:59N 36°30' E 013°25'611.9
2018-Jun-22 22:30N 36°32' E 013°18'612.0
2018-Jun-22 22:00N 36°34' E 013°11'612.0
2018-Jun-22 21:30N 36°36' E 013°04'612.1
2018-Jun-22 21:00N 36°38' E 012°57'611.8
2018-Jun-22 20:29N 36°40' E 012°50'611.8
2018-Jun-22 20:00N 36°43' E 012°44'1412.1
2018-Jun-22 18:52N 36°49' E 012°28'411.9
2018-Jun-22 18:30N 36°51' E 012°24'612.1
2018-Jun-22 18:01N 36°54' E 012°17'612.0
2018-Jun-22 17:31N 36°56' E 012°10'711.9
2018-Jun-22 16:54N 36°59' E 012°02'712.1
2018-Jun-22 16:21N 37°02' E 011°54'29611.2
2018-Jun-21 13:59N 37°15' E 005°44'5511.3
2018-Jun-21 09:07N 37°07' E 004°35'6811.4
2018-Jun-21 03:07N 36°58' E 003°10'111.1
2018-Jun-21 03:00N 36°58' E 003°09'611.1
2018-Jun-21 02:30N 36°57' E 003°02'611.3
2018-Jun-21 02:00N 36°56' E 002°55'611.3
2018-Jun-21 01:30N 36°55' E 002°48'611.2
2018-Jun-21 01:00N 36°54' E 002°41'511.1
2018-Jun-21 00:30N 36°54' E 002°34'510.6
2018-Jun-21 00:00N 36°53' E 002°27'1010.5
2018-Jun-20 23:05N 36°52' E 002°15'110.5
2018-Jun-20 23:00N 36°51' E 002°14'610.5
2018-Jun-20 22:25N 36°51' E 002°07'410.8
2018-Jun-20 22:00N 36°50' E 002°01'510.9
2018-Jun-20 21:30N 36°49' E 001°54'611.0
2018-Jun-20 21:00N 36°48' E 001°48'611.2
2018-Jun-20 20:28N 36°48' E 001°40'511.8
2018-Jun-20 20:00N 36°47' E 001°34'611.8
2018-Jun-20 19:30N 36°46' E 001°26'611.7
2018-Jun-20 19:00N 36°45' E 001°19'611.6
2018-Jun-20 18:30N 36°44' E 001°12'611.6
2018-Jun-20 18:00N 36°43' E 001°05'611.6
2018-Jun-20 17:30N 36°43' E 000°58'1111.5
2018-Jun-20 16:32N 36°41' E 000°44'011.7
2018-Jun-20 16:29N 36°41' E 000°43'711.5
2018-Jun-20 15:52N 36°40' E 000°34'411.4
2018-Jun-20 15:30N 36°40' E 000°29'611.7
2018-Jun-20 15:00N 36°39' E 000°22'511.2
2018-Jun-20 14:30N 36°38' E 000°15'610.8
2018-Jun-20 13:57N 36°37' E 000°08'  
2018-Jun-16 01:28N 37°05' W 006°53'0 0.0
2018-Jun-16 00:28N 37°05' W 006°53'33 0.8
2018-Jun-14 06:08N 36°33' W 007°05'210.7
2018-Jun-14 05:56N 36°31' W 007°06'4811.0
2018-Jun-14 01:31N 35°44' W 007°19'5 9.4
2018-Jun-14 01:01N 35°40' W 007°19'1 0.8
2018-Jun-14 00:21N 35°40' W 007°19'0 0.8
2018-Jun-14 00:00N 35°40' W 007°19'77 4.1
2018-Jun-13 05:16N 35°57' W 005°47'4 7.4
2018-Jun-13 04:44N 35°57' W 005°42'3 7.0
2018-Jun-13 04:14N 35°58' W 005°37'2 7.5
2018-Jun-13 04:00N 35°58' W 005°35'4 7.4
2018-Jun-13 03:30N 35°59' W 005°31'4 7.9
2018-Jun-13 03:01N 36°00' W 005°26'  

Dump ship's entire track history